Information Last Ob Photographs Calibration Meteogram Network Table Neighbors Monthly Summaries Observation History Wind Roses Custom Wind Roses Data Calendar Satellite Cloud Product Download

29 February 2024 Observation History, [AWG] WASHINGTON, timezone: America/Chicago

Select Date: Time Order:

Show METARs   Show High Frequency MADIS

Previous Day
Time Wind
(mph)
Vis.
(mi.)
Sky Cond.
(100s ft)
Present Wx Temperature (ºF) Relative
Humidity
Pressure Snow
Depth
(in)
Precipitation (in.)
Air Dwpt Feels Like 6 hour altimeter
(in.)
sea level
(mb)
1 hr 3 hr 6 hr
Max.Min.
12:15 AMS 710 CLR
18-08 44% 30.370
KAWG 290615Z AUTO 18006KT 10SM CLR M08/M18 A3037 RMK AO2
12:35 AMS 710 CLR
1616 52% 30.370
KAWG 290635Z AUTO 18006KT 10SM CLR M09/M17 A3037 RMK AO2
12:55 AMS 710 CLR
1616 52% 30.370
KAWG 290655Z AUTO 18006KT 10SM CLR M09/M17 A3037 RMK AO2
1:15 AMS 610 CLR
1819 48% 30.370
KAWG 290715Z AUTO 18005KT 10SM CLR M08/M17 A3037 RMK AO2
1:35 AMSSW 710 CLR
1838 53% 30.370
KAWG 290735Z AUTO 19006KT 10SM CLR M08/M16 A3037 RMK AO2
1:55 AMS 610 CLR
1435 62% 30.370
KAWG 290755Z AUTO 18005KT 10SM CLR M10/M16 A3037 RMK AO2
2:15 AMSSE 610 CLR
1637 57% 30.350
KAWG 290815Z AUTO 16005KT 10SM CLR M09/M16 A3035 RMK AO2

The IEM API webservice that provided data to this page. For more details, see documentation.

Data Notes

  • For recent years, this page also optionally shows observations from the MADIS High Frequency METAR dataset. This dataset had a problem with temperatures detailed here.